createdAt,value
2023-01-29T00:02:26.184Z,93.13
2023-01-29T00:04:58.946Z,100.43
2023-01-29T00:07:26.835Z,97.60
2023-01-29T00:09:54.641Z,100.53
2023-01-29T00:12:22.295Z,101.13
2023-01-29T00:14:49.944Z,102.73
2023-01-29T00:17:17.613Z,98.07
2023-01-29T00:19:45.311Z,96.73
2023-01-29T00:22:14.264Z,96.27
2023-01-29T00:24:44.229Z,95.73
2023-01-29T00:27:11.913Z,91.37
2023-01-29T00:29:39.515Z,90.47
2023-01-29T00:32:07.254Z,104.50
2023-01-29T00:34:37.655Z,97.10
2023-01-29T00:37:08.807Z,97.97
2023-01-29T00:39:47.754Z,96.03
2023-01-29T00:42:33.546Z,91.57
2023-01-29T00:45:01.621Z,81.33
2023-01-29T00:47:33.276Z,95.80
2023-01-29T00:50:01.306Z,89.80
2023-01-29T00:52:29.723Z,100.13
2023-01-29T00:55:00.433Z,93.83
2023-01-29T00:57:30.198Z,94.77
2023-01-29T00:59:58.003Z,94.20
2023-01-29T01:02:43.754Z,95.53
2023-01-29T01:05:14.098Z,95.03
2023-01-29T01:07:42.123Z,93.77
2023-01-29T01:10:22.953Z,95.23
2023-01-29T01:12:54.562Z,90.97
2023-01-29T01:15:23.910Z,102.63
2023-01-29T01:17:55.878Z,97.77
2023-01-29T01:20:24.469Z,100.23
2023-01-29T01:22:52.453Z,93.63
2023-01-29T01:25:21.734Z,89.53
2023-01-29T01:27:49.353Z,101.23
2023-01-29T01:30:17.666Z,100.03
2023-01-29T01:32:46.136Z,97.20
2023-01-29T01:35:14.751Z,106.97
2023-01-29T01:37:43.460Z,103.37
2023-01-29T01:40:20.174Z,96.83
2023-01-29T01:42:50.691Z,101.87
2023-01-29T01:45:26.333Z,94.00
2023-01-29T01:47:58.254Z,95.13
2023-01-29T01:50:30.493Z,89.77
2023-01-29T01:53:04.038Z,94.13
2023-01-29T01:55:34.874Z,90.77
2023-01-29T01:58:09.194Z,90.83
2023-01-29T02:00:37.220Z,88.80
2023-01-29T02:03:23.964Z,102.17
2023-01-29T02:06:11.169Z,88.27
2023-01-29T02:09:03.752Z,85.83
2023-01-29T02:11:31.872Z,86.90
2023-01-29T02:14:00.923Z,96.80
2023-01-29T02:16:28.556Z,97.67
2023-01-29T02:18:56.560Z,93.47
2023-01-29T02:21:41.638Z,103.20
2023-01-29T02:24:26.376Z,89.47
2023-01-29T02:27:06.976Z,86.30
2023-01-29T02:29:48.514Z,88.13
2023-01-29T02:32:27.035Z,85.27
2023-01-29T02:35:21.931Z,93.03
2023-01-29T02:37:58.757Z,80.47
2023-01-29T02:40:32.374Z,92.03
2023-01-29T02:43:09.321Z,83.43
2023-01-29T02:45:48.291Z,91.80
2023-01-29T02:48:20.124Z,85.90
2023-01-29T02:50:55.015Z,92.30
2023-01-29T02:53:28.455Z,86.43
2023-01-29T02:56:01.492Z,79.70
2023-01-29T02:58:34.065Z,93.07
2023-01-29T03:01:09.920Z,85.83
2023-01-29T03:03:45.899Z,82.00
2023-01-29T03:06:20.702Z,85.87
2023-01-29T03:08:54.088Z,85.00
2023-01-29T03:11:22.613Z,89.87
2023-01-29T03:13:56.957Z,93.53
2023-01-29T03:16:30.983Z,90.53
2023-01-29T03:19:03.373Z,87.10
2023-01-29T03:21:55.192Z,84.47
2023-01-29T03:24:48.582Z,74.70
2023-01-29T03:27:38.891Z,83.93
2023-01-29T03:30:29.273Z,81.27
2023-01-29T03:33:12.087Z,76.93
2023-01-29T03:35:48.330Z,82.07
2023-01-29T03:38:16.455Z,79.70
2023-01-29T03:40:50.425Z,89.93
2023-01-29T03:43:32.184Z,83.33
2023-01-29T03:46:05.714Z,87.77
2023-01-29T03:48:39.553Z,88.33
2023-01-29T03:51:18.695Z,86.40
2023-01-29T03:53:52.987Z,93.23
2023-01-29T03:56:34.528Z,83.47
2023-01-29T03:59:11.055Z,80.47
2023-01-29T04:02:02.417Z,81.87
2023-01-29T04:04:34.428Z,82.70
2023-01-29T04:07:09.767Z,85.47
2023-01-29T04:09:43.534Z,89.40
2023-01-29T04:12:15.271Z,87.93
2023-01-29T04:14:46.317Z,84.40
2023-01-29T04:17:17.800Z,86.30
2023-01-29T04:19:54.772Z,86.30
2023-01-29T04:22:27.250Z,88.47
2023-01-29T04:24:55.453Z,89.73
2023-01-29T04:27:28.558Z,88.17
2023-01-29T04:30:13.258Z,90.10
2023-01-29T04:32:53.637Z,86.00
2023-01-29T04:35:31.427Z,88.27
2023-01-29T04:38:12.467Z,80.97
2023-01-29T04:40:51.703Z,81.70
2023-01-29T04:43:27.597Z,82.67
2023-01-29T04:46:09.909Z,85.67
2023-01-29T04:48:49.179Z,84.57
2023-01-29T04:51:23.835Z,79.47
2023-01-29T04:53:58.446Z,77.27
2023-01-29T04:56:34.415Z,87.47
2023-01-29T04:59:07.157Z,78.33
2023-01-29T05:01:36.369Z,88.20
2023-01-29T05:04:09.463Z,88.97
2023-01-29T05:06:39.395Z,91.73
2023-01-29T05:09:09.234Z,84.23
2023-01-29T05:11:37.828Z,85.57
2023-01-29T05:14:09.886Z,77.83
2023-01-29T05:16:43.510Z,80.97
2023-01-29T05:19:13.681Z,82.83
2023-01-29T05:21:45.404Z,83.77
2023-01-29T05:24:16.304Z,79.27
2023-01-29T05:27:02.788Z,78.33
2023-01-29T05:29:30.471Z,74.97
2023-01-29T05:31:58.188Z,79.73
2023-01-29T05:34:26.017Z,73.33
2023-01-29T05:36:55.005Z,74.80
2023-01-29T05:39:22.692Z,74.83
2023-01-29T05:41:50.410Z,77.37
2023-01-29T05:44:18.155Z,74.63
2023-01-29T05:46:46.082Z,64.80
2023-01-29T05:49:13.918Z,68.73
2023-01-29T05:51:41.540Z,74.77
2023-01-29T05:54:12.312Z,70.20
2023-01-29T05:56:40.279Z,69.70
2023-01-29T05:59:08.283Z,71.13
2023-01-29T06:01:35.924Z,70.40
2023-01-29T06:04:03.744Z,70.00
2023-01-29T06:06:31.559Z,79.80
2023-01-29T06:08:59.281Z,83.57
2023-01-29T06:11:28.423Z,75.70
2023-01-29T06:13:56.109Z,72.50
2023-01-29T06:16:23.822Z,75.50
2023-01-29T06:18:51.547Z,78.93
2023-01-29T06:21:20.233Z,80.07
2023-01-29T06:23:47.959Z,75.80
2023-01-29T06:26:16.986Z,77.93
2023-01-29T06:28:46.101Z,82.63
2023-01-29T06:31:36.294Z,81.63
2023-01-29T06:34:01.336Z,80.73
2023-01-29T06:36:28.956Z,77.43
2023-01-29T06:38:56.601Z,85.43
2023-01-29T06:41:25.401Z,75.27
2023-01-29T06:43:54.507Z,79.57
2023-01-29T06:46:22.380Z,74.73
2023-01-29T06:48:50.018Z,90.47
2023-01-29T06:51:17.721Z,83.47
2023-01-29T06:53:46.613Z,80.60
2023-01-29T06:56:14.473Z,81.93
2023-01-29T06:58:43.441Z,74.10
2023-01-29T07:01:25.494Z,81.90
2023-01-29T07:04:00.819Z,79.77
2023-01-29T07:06:29.274Z,75.83
2023-01-29T07:08:57.591Z,79.33
2023-01-29T07:11:25.239Z,80.60
2023-01-29T07:13:52.875Z,85.73
2023-01-29T07:16:21.935Z,77.17
2023-01-29T07:18:49.775Z,80.90
2023-01-29T07:21:18.944Z,82.40
2023-01-29T07:23:46.639Z,78.47
2023-01-29T07:26:14.736Z,78.30
2023-01-29T07:28:42.473Z,82.97
2023-01-29T07:31:13.563Z,83.13
2023-01-29T07:33:44.020Z,76.57
2023-01-29T07:36:12.692Z,75.07
2023-01-29T07:38:40.389Z,66.33
2023-01-29T07:41:08.390Z,72.33
2023-01-29T07:43:36.044Z,78.03
2023-01-29T07:46:04.792Z,77.13
2023-01-29T07:48:32.736Z,76.73
2023-01-29T07:51:01.970Z,64.87
2023-01-29T07:53:30.509Z,78.27
2023-01-29T07:55:58.585Z,80.97
2023-01-29T07:58:26.228Z,73.93
2023-01-29T08:00:53.854Z,71.13
2023-01-29T08:03:21.748Z,77.30
2023-01-29T08:05:50.068Z,72.40
2023-01-29T08:08:19.303Z,75.10
2023-01-29T08:10:47.088Z,71.27
2023-01-29T08:13:14.913Z,69.97
2023-01-29T08:15:45.112Z,69.33
2023-01-29T08:18:13.801Z,66.87
2023-01-29T08:20:41.588Z,70.97
2023-01-29T08:23:13.596Z,72.43
2023-01-29T08:25:43.246Z,75.70
2023-01-29T08:28:12.308Z,79.20
2023-01-29T08:30:40.540Z,82.90
2023-01-29T08:33:08.301Z,82.13
2023-01-29T08:35:36.074Z,77.40
2023-01-29T08:38:05.208Z,98.03
2023-01-29T08:40:34.829Z,83.77
2023-01-29T08:43:07.797Z,86.77
2023-01-29T08:45:38.779Z,96.33
2023-01-29T08:48:07.363Z,91.00
2023-01-29T08:50:35.484Z,94.10
2023-01-29T08:53:04.686Z,89.40
2023-01-29T08:55:32.458Z,79.07
2023-01-29T08:58:00.141Z,98.33
2023-01-29T09:00:29.095Z,96.10
2023-01-29T09:02:57.048Z,93.30
2023-01-29T09:05:24.768Z,98.53
2023-01-29T09:07:54.164Z,100.97
2023-01-29T09:10:22.050Z,90.30
2023-01-29T09:12:49.849Z,97.03
2023-01-29T09:15:17.994Z,91.10
2023-01-29T09:17:49.352Z,100.63
2023-01-29T09:20:18.179Z,96.40
2023-01-29T09:22:45.954Z,104.30
2023-01-29T09:25:14.594Z,105.63
2023-01-29T09:27:42.799Z,100.57
2023-01-29T09:30:11.863Z,100.53
2023-01-29T09:32:55.261Z,96.50
2023-01-29T09:35:25.017Z,89.10
2023-01-29T09:37:52.977Z,96.33
2023-01-29T09:40:26.677Z,109.07
2023-01-29T09:42:59.768Z,111.60
2023-01-29T09:45:29.273Z,120.57
2023-01-29T09:47:59.488Z,112.17
2023-01-29T09:50:32.215Z,107.80
2023-01-29T09:53:05.313Z,108.60
2023-01-29T09:55:38.469Z,108.10
2023-01-29T09:58:12.920Z,106.70
2023-01-29T10:00:47.776Z,116.63
2023-01-29T10:03:30.731Z,112.03
2023-01-29T10:06:16.220Z,103.17
2023-01-29T10:09:04.741Z,112.03
2023-01-29T10:11:43.863Z,108.90
2023-01-29T10:14:17.908Z,116.00
2023-01-29T10:16:59.907Z,112.97
2023-01-29T10:19:46.965Z,121.87
2023-01-29T10:22:37.842Z,110.80
2023-01-29T10:25:07.719Z,108.83
2023-01-29T10:27:39.351Z,118.90
2023-01-29T10:30:10.399Z,111.80
2023-01-29T10:32:38.997Z,104.00
2023-01-29T10:35:17.899Z,110.57
2023-01-29T10:37:47.377Z,102.47
2023-01-29T10:40:21.644Z,103.10
2023-01-29T10:42:58.022Z,108.87
2023-01-29T10:45:37.557Z,104.60
2023-01-29T10:48:38.794Z,95.20
2023-01-29T10:51:15.385Z,95.90
2023-01-29T10:54:02.979Z,92.27
2023-01-29T10:56:49.403Z,91.90
2023-01-29T10:59:37.138Z,96.27
2023-01-29T11:02:15.936Z,79.97
2023-01-29T11:04:43.690Z,87.47
2023-01-29T11:07:12.131Z,108.57
2023-01-29T11:09:46.167Z,100.53
2023-01-29T11:12:16.384Z,103.30
2023-01-29T11:14:47.940Z,101.00
2023-01-29T11:17:17.287Z,100.70
2023-01-29T11:19:46.893Z,99.07
2023-01-29T11:22:16.216Z,94.73
2023-01-29T11:24:45.525Z,99.27
2023-01-29T11:27:22.917Z,95.77
2023-01-29T11:29:51.443Z,91.50
2023-01-29T11:32:27.521Z,89.03
2023-01-29T11:35:01.103Z,90.50
2023-01-29T11:37:34.882Z,94.93
2023-01-29T11:40:29.984Z,93.57
2023-01-29T11:43:19.228Z,87.30
2023-01-29T11:45:48.954Z,82.37
2023-01-29T11:48:18.868Z,90.97
2023-01-29T11:50:53.480Z,93.47
2023-01-29T11:53:34.912Z,93.70
2023-01-29T11:56:06.878Z,94.87
2023-01-29T11:58:36.830Z,89.20
2023-01-29T12:01:05.139Z,95.80
2023-01-29T12:03:37.919Z,91.50
2023-01-29T12:06:09.466Z,92.83
2023-01-29T12:08:39.790Z,95.00
2023-01-29T12:11:14.309Z,93.30
2023-01-29T12:13:43.645Z,93.50
2023-01-29T12:16:22.531Z,95.43
2023-01-29T12:18:55.087Z,90.93
2023-01-29T12:21:34.376Z,89.57
2023-01-29T12:24:08.463Z,94.70
2023-01-29T12:26:44.087Z,92.97
2023-01-29T12:29:24.961Z,85.50
2023-01-29T12:32:01.968Z,87.50
2023-01-29T12:34:39.161Z,92.07
2023-01-29T12:37:16.497Z,84.07
2023-01-29T12:39:44.337Z,82.17
2023-01-29T12:42:17.702Z,88.13
2023-01-29T12:44:49.034Z,86.97
2023-01-29T12:47:22.089Z,91.50
2023-01-29T12:49:54.764Z,82.47
2023-01-29T12:52:29.200Z,93.87
2023-01-29T12:55:02.067Z,92.77
2023-01-29T12:57:41.332Z,87.10
2023-01-29T13:00:15.434Z,87.63
2023-01-29T13:02:49.258Z,78.30
2023-01-29T13:05:23.527Z,84.60
2023-01-29T13:07:59.130Z,81.67
2023-01-29T13:10:30.541Z,76.13
2023-01-29T13:13:03.830Z,79.20
2023-01-29T13:15:36.047Z,74.70
2023-01-29T13:18:24.500Z,79.63
2023-01-29T13:20:53.185Z,73.30
2023-01-29T13:23:23.471Z,68.20
2023-01-29T13:25:52.704Z,70.43
2023-01-29T13:28:26.196Z,82.20
2023-01-29T13:31:12.881Z,79.70
2023-01-29T13:33:42.868Z,75.50
2023-01-29T13:36:17.296Z,71.60
2023-01-29T13:38:45.960Z,79.87
2023-01-29T13:41:15.726Z,81.27
2023-01-29T13:43:50.548Z,79.63
2023-01-29T13:46:21.360Z,80.80
2023-01-29T13:48:51.807Z,90.20
2023-01-29T13:51:23.625Z,77.37
2023-01-29T13:53:58.214Z,76.87
2023-01-29T13:56:31.391Z,72.97
2023-01-29T13:59:01.702Z,75.87
2023-01-29T14:02:02.531Z,84.17
2023-01-29T14:04:32.545Z,70.60
2023-01-29T14:07:02.953Z,68.77
2023-01-29T14:10:06.193Z,72.30
2023-01-29T14:12:38.503Z,73.10
2023-01-29T14:15:39.249Z,78.80
2023-01-29T14:18:19.753Z,78.53
2023-01-29T14:20:58.681Z,88.67
2023-01-29T14:23:41.532Z,92.20
2023-01-29T14:26:29.728Z,89.67
2023-01-29T14:29:07.718Z,96.43
2023-01-29T14:31:43.786Z,95.60
2023-01-29T14:34:21.095Z,98.27
2023-01-29T14:36:55.290Z,97.10
2023-01-29T14:39:34.035Z,92.07
2023-01-29T14:42:05.749Z,94.97
2023-01-29T14:45:07.251Z,91.80
2023-01-29T14:47:57.311Z,89.50
2023-01-29T14:50:54.633Z,85.73
2023-01-29T14:53:44.313Z,87.67
2023-01-29T14:56:17.854Z,94.70
2023-01-29T14:58:49.844Z,95.20
2023-01-29T15:01:23.112Z,101.00
2023-01-29T15:03:54.443Z,96.43
2023-01-29T15:06:30.120Z,97.33
2023-01-29T15:09:06.492Z,102.33
2023-01-29T15:11:41.712Z,105.13
2023-01-29T15:14:25.573Z,92.97
2023-01-29T15:17:01.445Z,92.40
2023-01-29T15:19:35.597Z,90.27
2023-01-29T15:22:11.009Z,98.20
2023-01-29T15:24:40.557Z,95.57
2023-01-29T15:27:13.493Z,95.80
2023-01-29T15:29:44.310Z,103.10
2023-01-29T15:32:20.534Z,104.80
2023-01-29T15:34:50.396Z,100.03
2023-01-29T15:37:30.329Z,99.93
2023-01-29T15:39:58.360Z,93.53
2023-01-29T15:42:27.870Z,107.47
2023-01-29T15:44:55.935Z,97.80
2023-01-29T15:47:28.426Z,104.47
2023-01-29T15:49:58.354Z,103.17
2023-01-29T15:52:29.876Z,100.87
2023-01-29T15:55:02.808Z,95.67
2023-01-29T15:57:37.219Z,95.57
2023-01-29T16:00:08.156Z,104.53
2023-01-29T16:02:41.151Z,98.73
2023-01-29T16:05:14.537Z,103.53
2023-01-29T16:07:43.291Z,94.37
2023-01-29T16:10:18.500Z,102.53
2023-01-29T16:12:51.276Z,95.20
2023-01-29T16:15:32.095Z,95.13
2023-01-29T16:18:01.135Z,97.90
2023-01-29T16:20:37.708Z,95.00
2023-01-29T16:23:07.502Z,92.93
2023-01-29T16:25:38.406Z,91.40
2023-01-29T16:28:10.858Z,95.60
2023-01-29T16:30:39.636Z,95.50
2023-01-29T16:33:12.735Z,104.00
2023-01-29T16:35:42.685Z,99.07
2023-01-29T16:38:27.975Z,99.67
2023-01-29T16:41:19.667Z,90.50
2023-01-29T16:43:52.480Z,83.17
2023-01-29T16:46:25.166Z,95.83
2023-01-29T16:48:53.690Z,90.13
2023-01-29T16:51:30.449Z,102.47
2023-01-29T16:54:07.169Z,93.47
2023-01-29T16:56:36.007Z,98.03
2023-01-29T16:59:06.130Z,98.07
2023-01-29T17:01:36.652Z,94.27
2023-01-29T17:04:09.877Z,85.63
2023-01-29T17:06:41.361Z,104.57
2023-01-29T17:09:09.330Z,93.13
2023-01-29T17:11:39.263Z,91.13
2023-01-29T17:14:08.707Z,93.70
2023-01-29T17:16:47.512Z,91.10
2023-01-29T17:19:20.720Z,89.47
2023-01-29T17:21:49.776Z,94.27
2023-01-29T17:24:17.442Z,95.97
2023-01-29T17:26:45.434Z,89.60
2023-01-29T17:29:16.394Z,92.00
2023-01-29T17:31:44.149Z,84.87
2023-01-29T17:34:14.265Z,83.70
2023-01-29T17:36:42.052Z,95.77
2023-01-29T17:39:17.654Z,101.33
2023-01-29T17:41:47.439Z,96.83
2023-01-29T17:44:15.313Z,91.17
2023-01-29T17:46:43.502Z,92.63
2023-01-29T17:49:22.206Z,88.00
2023-01-29T17:51:50.375Z,84.60
2023-01-29T17:54:19.833Z,90.17
2023-01-29T17:56:47.694Z,90.57
2023-01-29T17:59:16.514Z,84.47
2023-01-29T18:01:44.994Z,86.97
2023-01-29T18:04:12.871Z,82.33
2023-01-29T18:06:41.884Z,83.83
2023-01-29T18:09:13.333Z,81.53
2023-01-29T18:11:42.687Z,74.93
2023-01-29T18:14:14.030Z,75.30
2023-01-29T18:16:43.985Z,75.00
2023-01-29T18:19:15.607Z,76.47
2023-01-29T18:21:43.627Z,71.23
2023-01-29T18:24:11.513Z,64.87
2023-01-29T18:26:39.492Z,81.40
2023-01-29T18:29:09.399Z,67.07
2023-01-29T18:31:37.260Z,69.87
2023-01-29T18:34:04.987Z,68.80
2023-01-29T18:36:32.816Z,65.07
2023-01-29T18:39:00.459Z,61.77
2023-01-29T18:41:28.094Z,66.07
2023-01-29T18:43:55.858Z,64.00
2023-01-29T18:46:25.068Z,78.93
2023-01-29T18:48:52.806Z,70.33
2023-01-29T18:51:21.548Z,74.70
2023-01-29T18:53:52.605Z,80.77
2023-01-29T18:56:20.509Z,74.13
2023-01-29T18:58:49.842Z,81.37
2023-01-29T19:01:23.430Z,76.00
2023-01-29T19:03:52.503Z,74.83
2023-01-29T19:06:20.281Z,79.63
2023-01-29T19:08:48.071Z,74.43
2023-01-29T19:11:15.802Z,79.27
2023-01-29T19:13:43.574Z,76.77
2023-01-29T19:16:12.543Z,76.97
2023-01-29T19:18:40.727Z,75.70
2023-01-29T19:21:12.416Z,71.33
2023-01-29T19:23:40.914Z,74.87
2023-01-29T19:26:08.775Z,87.13
2023-01-29T19:28:36.722Z,78.93
2023-01-29T19:31:04.629Z,75.97
2023-01-29T19:33:32.476Z,77.43
2023-01-29T19:36:00.700Z,75.60
2023-01-29T19:38:33.318Z,75.97
2023-01-29T19:41:01.321Z,75.70
2023-01-29T19:43:30.379Z,70.63
2023-01-29T19:45:58.982Z,70.83
2023-01-29T19:48:26.734Z,66.40
2023-01-29T19:50:55.168Z,69.70
2023-01-29T19:53:23.254Z,75.00
2023-01-29T19:55:59.820Z,67.83
2023-01-29T19:58:27.647Z,66.47
2023-01-29T20:00:56.539Z,71.27
2023-01-29T20:03:24.847Z,69.30
2023-01-29T20:05:52.575Z,65.27
2023-01-29T20:08:20.572Z,61.93
2023-01-29T20:10:49.360Z,68.77
2023-01-29T20:13:18.387Z,63.47
2023-01-29T20:15:46.675Z,64.70
2023-01-29T20:18:14.888Z,65.20
2023-01-29T20:20:43.456Z,58.90
2023-01-29T20:23:11.703Z,60.43
2023-01-29T20:25:39.477Z,58.53
2023-01-29T20:28:08.813Z,61.57
2023-01-29T20:30:38.242Z,67.23
2023-01-29T20:33:07.217Z,58.67
2023-01-29T20:35:36.878Z,59.10
2023-01-29T20:38:05.886Z,60.37
2023-01-29T20:40:33.639Z,65.10
2023-01-29T20:43:01.279Z,60.73
2023-01-29T20:45:29.015Z,62.37
2023-01-29T20:47:58.419Z,63.40
2023-01-29T20:50:26.098Z,62.03
2023-01-29T20:52:53.891Z,63.53
2023-01-29T20:55:21.885Z,59.40
2023-01-29T20:58:05.416Z,54.73
2023-01-29T21:00:34.494Z,52.37
2023-01-29T21:03:03.565Z,63.17
2023-01-29T21:05:31.294Z,50.97
2023-01-29T21:07:58.919Z,56.73
2023-01-29T21:10:26.699Z,54.87
2023-01-29T21:12:54.567Z,54.63
2023-01-29T21:15:23.336Z,48.27
2023-01-29T21:17:52.282Z,54.37
2023-01-29T21:20:21.339Z,53.87
2023-01-29T21:22:49.173Z,54.17
2023-01-29T21:25:20.161Z,55.80
2023-01-29T21:27:47.863Z,50.53
2023-01-29T21:30:16.009Z,53.63
2023-01-29T21:32:43.978Z,59.47
2023-01-29T21:35:11.683Z,52.50
2023-01-29T21:37:40.674Z,50.87
2023-01-29T21:40:09.844Z,53.93
2023-01-29T21:42:55.140Z,53.00
2023-01-29T21:45:22.752Z,43.50
2023-01-29T21:47:50.368Z,44.90
2023-01-29T21:50:18.525Z,46.53
2023-01-29T21:52:47.716Z,45.10
2023-01-29T21:55:15.826Z,36.80
2023-01-29T21:57:44.430Z,41.63
2023-01-29T22:00:13.035Z,48.83
2023-01-29T22:02:40.822Z,45.03
2023-01-29T22:05:18.746Z,43.50
2023-01-29T22:07:49.154Z,42.30
2023-01-29T22:10:18.312Z,41.13
2023-01-29T22:12:46.791Z,39.37
2023-01-29T22:15:15.332Z,37.70
2023-01-29T22:17:44.424Z,39.00
2023-01-29T22:20:13.931Z,41.07
2023-01-29T22:22:41.686Z,39.33
2023-01-29T22:25:11.394Z,36.13
2023-01-29T22:27:39.202Z,39.10
2023-01-29T22:30:08.594Z,36.00
2023-01-29T22:32:36.585Z,37.23
2023-01-29T22:35:04.557Z,39.57
2023-01-29T22:37:32.390Z,38.87
2023-01-29T22:40:00.154Z,37.50
2023-01-29T22:42:29.187Z,39.57
2023-01-29T22:44:56.848Z,35.73
2023-01-29T22:47:24.647Z,35.80
2023-01-29T22:49:52.415Z,42.13
2023-01-29T22:52:22.185Z,35.47
2023-01-29T22:54:51.348Z,39.60
2023-01-29T22:57:19.260Z,37.10
2023-01-29T22:59:48.369Z,36.30
2023-01-29T23:02:16.192Z,38.90
2023-01-29T23:04:43.858Z,33.43
2023-01-29T23:07:11.553Z,37.57
2023-01-29T23:09:39.201Z,36.93
2023-01-29T23:12:07.981Z,34.70
2023-01-29T23:14:35.688Z,32.77
2023-01-29T23:17:04.739Z,34.10
2023-01-29T23:19:32.425Z,37.23
2023-01-29T23:22:00.332Z,35.10
2023-01-29T23:24:28.563Z,39.13
2023-01-29T23:27:13.773Z,35.17
2023-01-29T23:29:41.765Z,36.53
2023-01-29T23:32:11.755Z,37.97
2023-01-29T23:34:39.536Z,38.70
2023-01-29T23:37:07.948Z,36.93
2023-01-29T23:39:35.564Z,32.80
2023-01-29T23:42:03.609Z,34.77
2023-01-29T23:44:31.394Z,34.77
2023-01-29T23:46:59.137Z,37.30
2023-01-29T23:49:28.224Z,30.53
2023-01-29T23:51:55.929Z,30.20
2023-01-29T23:54:23.618Z,27.87
2023-01-29T23:56:51.363Z,30.63
2023-01-29T23:59:19.049Z,30.60
